sensor_id;sensor_type;location;lat;lon;timestamp;P1;durP1;ratioP1;P2;durP2;ratioP2
55372;SDS011;41249;47.838;16.490;2023-02-28T00:04:46;13.20;;;5.90;;
55372;SDS011;41249;47.838;16.490;2023-02-28T00:07:19;9.80;;;5.87;;
55372;SDS011;41249;47.838;16.490;2023-02-28T00:12:26;9.02;;;5.30;;
55372;SDS011;41249;47.838;16.490;2023-02-28T00:14:53;10.10;;;5.32;;
55372;SDS011;41249;47.838;16.490;2023-02-28T00:17:20;7.88;;;5.15;;
55372;SDS011;41249;47.838;16.490;2023-02-28T00:19:50;10.80;;;6.00;;
55372;SDS011;41249;47.838;16.490;2023-02-28T00:22:18;11.35;;;6.07;;
55372;SDS011;41249;47.838;16.490;2023-02-28T00:24:46;12.32;;;5.45;;
55372;SDS011;41249;47.838;16.490;2023-02-28T00:27:13;8.88;;;6.38;;
55372;SDS011;41249;47.838;16.490;2023-02-28T00:29:40;11.50;;;5.80;;
55372;SDS011;41249;47.838;16.490;2023-02-28T00:32:07;10.10;;;5.80;;
55372;SDS011;41249;47.838;16.490;2023-02-28T00:34:34;9.93;;;6.07;;
55372;SDS011;41249;47.838;16.490;2023-02-28T00:37:04;15.45;;;6.28;;
55372;SDS011;41249;47.838;16.490;2023-02-28T00:39:33;11.23;;;6.35;;
55372;SDS011;41249;47.838;16.490;2023-02-28T00:42:00;11.00;;;5.72;;
55372;SDS011;41249;47.838;16.490;2023-02-28T00:44:28;8.30;;;5.28;;
55372;SDS011;41249;47.838;16.490;2023-02-28T00:46:55;8.50;;;4.60;;
55372;SDS011;41249;47.838;16.490;2023-02-28T00:49:23;4.53;;;2.80;;
55372;SDS011;41249;47.838;16.490;2023-02-28T00:51:50;6.28;;;3.75;;
55372;SDS011;41249;47.838;16.490;2023-02-28T00:54:18;6.05;;;3.05;;
55372;SDS011;41249;47.838;16.490;2023-02-28T00:56:45;9.02;;;3.67;;
55372;SDS011;41249;47.838;16.490;2023-02-28T00:59:15;6.10;;;3.28;;
55372;SDS011;41249;47.838;16.490;2023-02-28T01:01:43;5.00;;;2.60;;
55372;SDS011;41249;47.838;16.490;2023-02-28T01:04:11;4.70;;;2.33;;
55372;SDS011;41249;47.838;16.490;2023-02-28T01:06:39;5.03;;;3.50;;
55372;SDS011;41249;47.838;16.490;2023-02-28T01:09:06;6.30;;;3.08;;
55372;SDS011;41249;47.838;16.490;2023-02-28T01:11:34;6.97;;;3.65;;
55372;SDS011;41249;47.838;16.490;2023-02-28T01:14:01;6.93;;;3.40;;
55372;SDS011;41249;47.838;16.490;2023-02-28T01:16:28;7.38;;;3.90;;
55372;SDS011;41249;47.838;16.490;2023-02-28T01:18:55;8.32;;;3.63;;
55372;SDS011;41249;47.838;16.490;2023-02-28T01:21:22;6.22;;;3.47;;
55372;SDS011;41249;47.838;16.490;2023-02-28T01:23:49;6.38;;;3.15;;
55372;SDS011;41249;47.838;16.490;2023-02-28T01:26:17;4.43;;;2.78;;
55372;SDS011;41249;47.838;16.490;2023-02-28T01:28:45;6.82;;;4.20;;
55372;SDS011;41249;47.838;16.490;2023-02-28T01:31:13;5.95;;;3.40;;
55372;SDS011;41249;47.838;16.490;2023-02-28T01:33:40;5.43;;;3.50;;
55372;SDS011;41249;47.838;16.490;2023-02-28T01:36:09;6.22;;;2.92;;
55372;SDS011;41249;47.838;16.490;2023-02-28T01:38:38;7.57;;;3.90;;
55372;SDS011;41249;47.838;16.490;2023-02-28T01:41:06;6.95;;;3.22;;
55372;SDS011;41249;47.838;16.490;2023-02-28T01:43:52;7.20;;;3.65;;
55372;SDS011;41249;47.838;16.490;2023-02-28T01:46:20;6.63;;;3.67;;
55372;SDS011;41249;47.838;16.490;2023-02-28T01:48:48;9.30;;;3.50;;
55372;SDS011;41249;47.838;16.490;2023-02-28T01:51:23;12.63;;;4.68;;
55372;SDS011;41249;47.838;16.490;2023-02-28T01:53:57;9.30;;;4.90;;
55372;SDS011;41249;47.838;16.490;2023-02-28T01:56:29;11.43;;;5.00;;
55372;SDS011;41249;47.838;16.490;2023-02-28T01:58:59;7.75;;;3.78;;
55372;SDS011;41249;47.838;16.490;2023-02-28T02:01:26;9.20;;;4.80;;
55372;SDS011;41249;47.838;16.490;2023-02-28T02:03:59;10.15;;;5.20;;
55372;SDS011;41249;47.838;16.490;2023-02-28T02:06:38;8.53;;;4.23;;
55372;SDS011;41249;47.838;16.490;2023-02-28T02:09:08;7.65;;;3.80;;
55372;SDS011;41249;47.838;16.490;2023-02-28T02:11:35;12.45;;;5.47;;
55372;SDS011;41249;47.838;16.490;2023-02-28T02:17:21;10.25;;;5.45;;
55372;SDS011;41249;47.838;16.490;2023-02-28T02:34:57;11.98;;;5.60;;
55372;SDS011;41249;47.838;16.490;2023-02-28T02:38:09;8.75;;;4.95;;
55372;SDS011;41249;47.838;16.490;2023-02-28T02:43:17;8.13;;;5.10;;
55372;SDS011;41249;47.838;16.490;2023-02-28T02:46:32;11.55;;;5.95;;
55372;SDS011;41249;47.838;16.490;2023-02-28T02:48:41;12.35;;;5.40;;
55372;SDS011;41249;47.838;16.490;2023-02-28T02:51:13;9.25;;;5.50;;
55372;SDS011;41249;47.838;16.490;2023-02-28T02:54:02;7.22;;;4.38;;
55372;SDS011;41249;47.838;16.490;2023-02-28T02:56:34;8.43;;;5.30;;
55372;SDS011;41249;47.838;16.490;2023-02-28T02:59:03;9.15;;;4.95;;
55372;SDS011;41249;47.838;16.490;2023-02-28T03:01:33;7.68;;;4.53;;
55372;SDS011;41249;47.838;16.490;2023-02-28T03:04:06;8.82;;;4.78;;
55372;SDS011;41249;47.838;16.490;2023-02-28T03:06:35;9.60;;;5.90;;
55372;SDS011;41249;47.838;16.490;2023-02-28T03:09:02;8.95;;;5.80;;
55372;SDS011;41249;47.838;16.490;2023-02-28T03:11:30;12.15;;;6.05;;
55372;SDS011;41249;47.838;16.490;2023-02-28T03:19:29;14.05;;;5.32;;
55372;SDS011;41249;47.838;16.490;2023-02-28T03:22:19;8.18;;;5.15;;
55372;SDS011;41249;47.838;16.490;2023-02-28T03:25:20;10.10;;;5.63;;
55372;SDS011;41249;47.838;16.490;2023-02-28T03:28:04;10.07;;;5.00;;
55372;SDS011;41249;47.838;16.490;2023-02-28T03:30:46;7.43;;;4.18;;
55372;SDS011;41249;47.838;16.490;2023-02-28T03:33:21;8.57;;;4.80;;
55372;SDS011;41249;47.838;16.490;2023-02-28T03:35:57;12.73;;;6.30;;
55372;SDS011;41249;47.838;16.490;2023-02-28T03:38:49;10.50;;;5.63;;
55372;SDS011;41249;47.838;16.490;2023-02-28T03:41:22;10.32;;;5.45;;
55372;SDS011;41249;47.838;16.490;2023-02-28T03:43:55;9.38;;;5.40;;
55372;SDS011;41249;47.838;16.490;2023-02-28T03:46:27;10.43;;;5.68;;
55372;SDS011;41249;47.838;16.490;2023-02-28T03:48:59;8.90;;;5.47;;
55372;SDS011;41249;47.838;16.490;2023-02-28T03:51:32;12.13;;;5.43;;
55372;SDS011;41249;47.838;16.490;2023-02-28T03:54:02;8.75;;;5.40;;
55372;SDS011;41249;47.838;16.490;2023-02-28T03:56:39;8.27;;;4.93;;
55372;SDS011;41249;47.838;16.490;2023-02-28T04:02:00;10.73;;;5.10;;
55372;SDS011;41249;47.838;16.490;2023-02-28T04:04:27;10.43;;;5.03;;
55372;SDS011;41249;47.838;16.490;2023-02-28T04:07:00;7.70;;;5.28;;
55372;SDS011;41249;47.838;16.490;2023-02-28T04:09:34;11.57;;;5.03;;
55372;SDS011;41249;47.838;16.490;2023-02-28T04:12:01;7.68;;;3.85;;
55372;SDS011;41249;47.838;16.490;2023-02-28T04:14:28;8.55;;;4.40;;
55372;SDS011;41249;47.838;16.490;2023-02-28T04:16:55;8.70;;;4.32;;
55372;SDS011;41249;47.838;16.490;2023-02-28T04:19:21;8.30;;;4.13;;
55372;SDS011;41249;47.838;16.490;2023-02-28T04:21:51;8.52;;;4.47;;
55372;SDS011;41249;47.838;16.490;2023-02-28T04:24:23;11.75;;;5.22;;
55372;SDS011;41249;47.838;16.490;2023-02-28T04:26:53;10.98;;;4.45;;
55372;SDS011;41249;47.838;16.490;2023-02-28T04:29:22;5.88;;;3.42;;
55372;SDS011;41249;47.838;16.490;2023-02-28T04:31:50;11.43;;;4.93;;
55372;SDS011;41249;47.838;16.490;2023-02-28T04:34:19;16.10;;;7.03;;
55372;SDS011;41249;47.838;16.490;2023-02-28T04:36:47;9.65;;;5.07;;
55372;SDS011;41249;47.838;16.490;2023-02-28T04:39:37;7.47;;;4.43;;
55372;SDS011;41249;47.838;16.490;2023-02-28T04:42:04;11.45;;;7.15;;
55372;SDS011;41249;47.838;16.490;2023-02-28T04:44:30;9.93;;;5.78;;
55372;SDS011;41249;47.838;16.490;2023-02-28T04:46:57;8.18;;;5.60;;
55372;SDS011;41249;47.838;16.490;2023-02-28T04:49:24;9.18;;;5.57;;
55372;SDS011;41249;47.838;16.490;2023-02-28T04:51:51;8.15;;;5.60;;
55372;SDS011;41249;47.838;16.490;2023-02-28T04:54:19;8.38;;;4.75;;
55372;SDS011;41249;47.838;16.490;2023-02-28T04:56:45;10.70;;;5.32;;
55372;SDS011;41249;47.838;16.490;2023-02-28T04:59:14;8.77;;;4.70;;
55372;SDS011;41249;47.838;16.490;2023-02-28T05:01:44;10.60;;;5.18;;
55372;SDS011;41249;47.838;16.490;2023-02-28T05:04:12;12.32;;;5.25;;
55372;SDS011;41249;47.838;16.490;2023-02-28T05:06:39;7.70;;;4.93;;
55372;SDS011;41249;47.838;16.490;2023-02-28T05:09:06;11.68;;;5.18;;
55372;SDS011;41249;47.838;16.490;2023-02-28T05:11:33;8.23;;;5.40;;
55372;SDS011;41249;47.838;16.490;2023-02-28T05:14:02;8.70;;;5.10;;
55372;SDS011;41249;47.838;16.490;2023-02-28T05:16:30;10.32;;;5.25;;
55372;SDS011;41249;47.838;16.490;2023-02-28T05:18:57;8.90;;;4.22;;
55372;SDS011;41249;47.838;16.490;2023-02-28T05:21:28;9.75;;;6.05;;
55372;SDS011;41249;47.838;16.490;2023-02-28T05:23:59;9.82;;;5.30;;
55372;SDS011;41249;47.838;16.490;2023-02-28T05:26:27;8.18;;;4.65;;
55372;SDS011;41249;47.838;16.490;2023-02-28T05:28:55;9.50;;;5.75;;
55372;SDS011;41249;47.838;16.490;2023-02-28T05:31:22;10.65;;;5.90;;
55372;SDS011;41249;47.838;16.490;2023-02-28T05:33:49;10.23;;;6.13;;
55372;SDS011;41249;47.838;16.490;2023-02-28T05:36:16;8.18;;;4.97;;
55372;SDS011;41249;47.838;16.490;2023-02-28T05:38:42;12.05;;;5.47;;
55372;SDS011;41249;47.838;16.490;2023-02-28T05:41:09;12.00;;;6.18;;
55372;SDS011;41249;47.838;16.490;2023-02-28T05:43:37;10.52;;;5.85;;
55372;SDS011;41249;47.838;16.490;2023-02-28T05:46:04;9.13;;;5.65;;
55372;SDS011;41249;47.838;16.490;2023-02-28T05:48:33;13.45;;;5.75;;
55372;SDS011;41249;47.838;16.490;2023-02-28T05:51:01;15.15;;;6.00;;
55372;SDS011;41249;47.838;16.490;2023-02-28T05:53:28;9.32;;;5.90;;
55372;SDS011;41249;47.838;16.490;2023-02-28T05:55:55;11.05;;;6.32;;
55372;SDS011;41249;47.838;16.490;2023-02-28T05:58:22;12.63;;;7.05;;
55372;SDS011;41249;47.838;16.490;2023-02-28T06:00:49;10.75;;;6.13;;
55372;SDS011;41249;47.838;16.490;2023-02-28T06:03:16;10.35;;;6.07;;
55372;SDS011;41249;47.838;16.490;2023-02-28T06:05:42;13.40;;;6.05;;
55372;SDS011;41249;47.838;16.490;2023-02-28T06:08:09;12.98;;;6.13;;
55372;SDS011;41249;47.838;16.490;2023-02-28T06:10:35;12.70;;;6.07;;
55372;SDS011;41249;47.838;16.490;2023-02-28T06:13:03;7.60;;;4.68;;
55372;SDS011;41249;47.838;16.490;2023-02-28T06:15:31;10.77;;;5.38;;
55372;SDS011;41249;47.838;16.490;2023-02-28T06:17:58;6.78;;;4.30;;
55372;SDS011;41249;47.838;16.490;2023-02-28T06:20:25;9.98;;;5.72;;
55372;SDS011;41249;47.838;16.490;2023-02-28T06:22:56;9.32;;;5.72;;
55372;SDS011;41249;47.838;16.490;2023-02-28T06:25:26;11.55;;;6.07;;
55372;SDS011;41249;47.838;16.490;2023-02-28T06:27:53;11.27;;;5.68;;
55372;SDS011;41249;47.838;16.490;2023-02-28T06:30:21;11.38;;;6.20;;
55372;SDS011;41249;47.838;16.490;2023-02-28T06:32:51;9.95;;;6.53;;
55372;SDS011;41249;47.838;16.490;2023-02-28T06:35:18;13.55;;;7.07;;
55372;SDS011;41249;47.838;16.490;2023-02-28T06:37:45;17.15;;;7.13;;
55372;SDS011;41249;47.838;16.490;2023-02-28T06:40:13;10.77;;;6.63;;
55372;SDS011;41249;47.838;16.490;2023-02-28T06:42:39;11.48;;;6.32;;
55372;SDS011;41249;47.838;16.490;2023-02-28T06:45:06;9.38;;;5.40;;
55372;SDS011;41249;47.838;16.490;2023-02-28T06:47:36;11.05;;;5.72;;
55372;SDS011;41249;47.838;16.490;2023-02-28T06:50:04;11.65;;;7.15;;
55372;SDS011;41249;47.838;16.490;2023-02-28T06:52:31;8.30;;;6.10;;
55372;SDS011;41249;47.838;16.490;2023-02-28T06:54:58;9.48;;;5.85;;
55372;SDS011;41249;47.838;16.490;2023-02-28T06:57:31;10.82;;;6.07;;
55372;SDS011;41249;47.838;16.490;2023-02-28T07:00:00;10.88;;;5.15;;
55372;SDS011;41249;47.838;16.490;2023-02-28T07:02:27;7.70;;;4.95;;
55372;SDS011;41249;47.838;16.490;2023-02-28T07:04:54;10.30;;;6.28;;
55372;SDS011;41249;47.838;16.490;2023-02-28T07:07:21;9.43;;;5.93;;
55372;SDS011;41249;47.838;16.490;2023-02-28T07:09:48;12.55;;;6.72;;
55372;SDS011;41249;47.838;16.490;2023-02-28T07:12:14;15.23;;;7.65;;
55372;SDS011;41249;47.838;16.490;2023-02-28T07:14:41;10.23;;;4.90;;
55372;SDS011;41249;47.838;16.490;2023-02-28T07:17:08;12.23;;;6.65;;
55372;SDS011;41249;47.838;16.490;2023-02-28T07:19:38;14.05;;;7.63;;
55372;SDS011;41249;47.838;16.490;2023-02-28T07:22:06;9.75;;;6.05;;
55372;SDS011;41249;47.838;16.490;2023-02-28T07:24:33;8.25;;;4.13;;
55372;SDS011;41249;47.838;16.490;2023-02-28T07:27:00;11.82;;;6.38;;
55372;SDS011;41249;47.838;16.490;2023-02-28T07:29:27;11.38;;;5.85;;
55372;SDS011;41249;47.838;16.490;2023-02-28T07:31:53;10.25;;;5.25;;
55372;SDS011;41249;47.838;16.490;2023-02-28T07:34:20;12.25;;;6.32;;
55372;SDS011;41249;47.838;16.490;2023-02-28T07:36:47;10.13;;;6.00;;
55372;SDS011;41249;47.838;16.490;2023-02-28T07:39:14;9.75;;;6.32;;
55372;SDS011;41249;47.838;16.490;2023-02-28T07:41:40;8.30;;;5.35;;
55372;SDS011;41249;47.838;16.490;2023-02-28T07:44:10;9.85;;;5.53;;
55372;SDS011;41249;47.838;16.490;2023-02-28T07:46:37;10.63;;;6.38;;
55372;SDS011;41249;47.838;16.490;2023-02-28T07:49:04;10.70;;;6.63;;
55372;SDS011;41249;47.838;16.490;2023-02-28T07:51:31;9.95;;;5.90;;
55372;SDS011;41249;47.838;16.490;2023-02-28T07:53:58;10.25;;;5.95;;
55372;SDS011;41249;47.838;16.490;2023-02-28T07:56:25;11.90;;;7.50;;
55372;SDS011;41249;47.838;16.490;2023-02-28T07:58:52;11.88;;;6.10;;
55372;SDS011;41249;47.838;16.490;2023-02-28T08:01:19;6.60;;;4.45;;
55372;SDS011;41249;47.838;16.490;2023-02-28T08:03:46;15.63;;;8.90;;
55372;SDS011;41249;47.838;16.490;2023-02-28T08:06:16;9.65;;;6.50;;
55372;SDS011;41249;47.838;16.490;2023-02-28T08:08:50;10.63;;;5.32;;
55372;SDS011;41249;47.838;16.490;2023-02-28T08:11:17;10.73;;;4.97;;
55372;SDS011;41249;47.838;16.490;2023-02-28T08:13:44;10.52;;;7.15;;
55372;SDS011;41249;47.838;16.490;2023-02-28T08:16:12;8.13;;;5.45;;
55372;SDS011;41249;47.838;16.490;2023-02-28T08:18:44;11.05;;;5.95;;
55372;SDS011;41249;47.838;16.490;2023-02-28T08:21:10;7.95;;;5.28;;
55372;SDS011;41249;47.838;16.490;2023-02-28T08:23:37;9.75;;;5.95;;
55372;SDS011;41249;47.838;16.490;2023-02-28T08:26:04;9.75;;;5.47;;
55372;SDS011;41249;47.838;16.490;2023-02-28T08:28:31;9.73;;;5.53;;
55372;SDS011;41249;47.838;16.490;2023-02-28T08:30:58;11.02;;;6.10;;
55372;SDS011;41249;47.838;16.490;2023-02-28T08:33:25;8.23;;;5.45;;
55372;SDS011;41249;47.838;16.490;2023-02-28T08:35:54;9.10;;;5.15;;
55372;SDS011;41249;47.838;16.490;2023-02-28T08:38:22;9.70;;;5.60;;
55372;SDS011;41249;47.838;16.490;2023-02-28T08:40:49;8.85;;;5.22;;
55372;SDS011;41249;47.838;16.490;2023-02-28T08:43:16;9.43;;;5.50;;
55372;SDS011;41249;47.838;16.490;2023-02-28T08:45:43;9.77;;;5.40;;
55372;SDS011;41249;47.838;16.490;2023-02-28T08:48:09;13.65;;;7.40;;
55372;SDS011;41249;47.838;16.490;2023-02-28T08:50:36;9.18;;;5.13;;
55372;SDS011;41249;47.838;16.490;2023-02-28T08:53:03;9.95;;;5.45;;
55372;SDS011;41249;47.838;16.490;2023-02-28T08:55:30;10.00;;;5.32;;
55372;SDS011;41249;47.838;16.490;2023-02-28T08:57:56;7.25;;;5.10;;
55372;SDS011;41249;47.838;16.490;2023-02-28T09:00:24;12.82;;;6.50;;
55372;SDS011;41249;47.838;16.490;2023-02-28T09:02:51;10.32;;;5.65;;
55372;SDS011;41249;47.838;16.490;2023-02-28T09:05:17;12.55;;;7.38;;
55372;SDS011;41249;47.838;16.490;2023-02-28T09:07:44;12.30;;;6.93;;
55372;SDS011;41249;47.838;16.490;2023-02-28T09:10:11;10.27;;;5.85;;
55372;SDS011;41249;47.838;16.490;2023-02-28T09:12:37;12.45;;;5.75;;
55372;SDS011;41249;47.838;16.490;2023-02-28T09:15:04;9.68;;;4.55;;
55372;SDS011;41249;47.838;16.490;2023-02-28T09:17:31;9.55;;;5.93;;
55372;SDS011;41249;47.838;16.490;2023-02-28T09:19:58;9.10;;;6.00;;
55372;SDS011;41249;47.838;16.490;2023-02-28T09:22:24;11.95;;;5.82;;
55372;SDS011;41249;47.838;16.490;2023-02-28T09:24:51;9.02;;;6.55;;
55372;SDS011;41249;47.838;16.490;2023-02-28T09:27:18;9.80;;;5.68;;
55372;SDS011;41249;47.838;16.490;2023-02-28T09:29:44;12.35;;;7.70;;
55372;SDS011;41249;47.838;16.490;2023-02-28T09:32:11;8.18;;;5.20;;
55372;SDS011;41249;47.838;16.490;2023-02-28T09:34:37;10.40;;;7.13;;
55372;SDS011;41249;47.838;16.490;2023-02-28T09:37:04;13.07;;;6.47;;
55372;SDS011;41249;47.838;16.490;2023-02-28T09:39:31;11.18;;;6.60;;
55372;SDS011;41249;47.838;16.490;2023-02-28T09:41:58;10.48;;;6.30;;
55372;SDS011;41249;47.838;16.490;2023-02-28T09:44:32;8.73;;;5.07;;
55372;SDS011;41249;47.838;16.490;2023-02-28T09:47:13;11.40;;;6.90;;
55372;SDS011;41249;47.838;16.490;2023-02-28T09:49:47;9.20;;;4.45;;
55372;SDS011;41249;47.838;16.490;2023-02-28T09:52:17;8.63;;;5.03;;
55372;SDS011;41249;47.838;16.490;2023-02-28T09:54:45;10.50;;;6.38;;
55372;SDS011;41249;47.838;16.490;2023-02-28T09:57:25;13.90;;;5.03;;
55372;SDS011;41249;47.838;16.490;2023-02-28T10:00:15;7.53;;;5.20;;
55372;SDS011;41249;47.838;16.490;2023-02-28T10:02:52;9.27;;;5.07;;
55372;SDS011;41249;47.838;16.490;2023-02-28T10:10:51;5.82;;;4.30;;
55372;SDS011;41249;47.838;16.490;2023-02-28T10:13:35;8.13;;;4.97;;
55372;SDS011;41249;47.838;16.490;2023-02-28T10:16:34;8.65;;;5.82;;
55372;SDS011;41249;47.838;16.490;2023-02-28T10:19:09;9.90;;;5.72;;
55372;SDS011;41249;47.838;16.490;2023-02-28T10:21:54;8.27;;;4.68;;
55372;SDS011;41249;47.838;16.490;2023-02-28T10:24:40;9.07;;;6.30;;
55372;SDS011;41249;47.838;16.490;2023-02-28T10:27:22;9.15;;;6.13;;
55372;SDS011;41249;47.838;16.490;2023-02-28T10:29:51;8.63;;;5.55;;
55372;SDS011;41249;47.838;16.490;2023-02-28T10:35:00;8.40;;;5.32;;
55372;SDS011;41249;47.838;16.490;2023-02-28T10:37:31;8.65;;;5.88;;
55372;SDS011;41249;47.838;16.490;2023-02-28T10:39:58;8.80;;;6.30;;
55372;SDS011;41249;47.838;16.490;2023-02-28T10:42:25;8.80;;;6.00;;
55372;SDS011;41249;47.838;16.490;2023-02-28T10:50:27;10.95;;;5.10;;
55372;SDS011;41249;47.838;16.490;2023-02-28T10:55:45;8.00;;;5.03;;
55372;SDS011;41249;47.838;16.490;2023-02-28T10:58:22;8.95;;;4.95;;
55372;SDS011;41249;47.838;16.490;2023-02-28T11:00:50;10.57;;;5.72;;
55372;SDS011;41249;47.838;16.490;2023-02-28T11:03:25;7.50;;;4.95;;
55372;SDS011;41249;47.838;16.490;2023-02-28T11:06:04;8.38;;;5.20;;
55372;SDS011;41249;47.838;16.490;2023-02-28T11:08:50;9.52;;;5.50;;
55372;SDS011;41249;47.838;16.490;2023-02-28T11:11:20;7.95;;;5.97;;
55372;SDS011;41249;47.838;16.490;2023-02-28T11:13:51;11.80;;;6.63;;
55372;SDS011;41249;47.838;16.490;2023-02-28T11:16:31;10.98;;;6.70;;
55372;SDS011;41249;47.838;16.490;2023-02-28T11:19:03;10.13;;;5.80;;
55372;SDS011;41249;47.838;16.490;2023-02-28T11:21:36;8.02;;;5.53;;
55372;SDS011;41249;47.838;16.490;2023-02-28T11:24:18;8.07;;;4.80;;
55372;SDS011;41249;47.838;16.490;2023-02-28T11:26:48;12.90;;;5.07;;
55372;SDS011;41249;47.838;16.490;2023-02-28T11:32:30;9.50;;;4.85;;
55372;SDS011;41249;47.838;16.490;2023-02-28T11:34:43;7.95;;;4.55;;
55372;SDS011;41249;47.838;16.490;2023-02-28T11:37:18;8.57;;;5.47;;
55372;SDS011;41249;47.838;16.490;2023-02-28T11:39:45;8.13;;;4.88;;
55372;SDS011;41249;47.838;16.490;2023-02-28T11:55:52;8.25;;;4.07;;
55372;SDS011;41249;47.838;16.490;2023-02-28T11:58:27;6.53;;;3.83;;
55372;SDS011;41249;47.838;16.490;2023-02-28T12:01:11;9.02;;;5.28;;
55372;SDS011;41249;47.838;16.490;2023-02-28T12:03:55;8.70;;;4.85;;
55372;SDS011;41249;47.838;16.490;2023-02-28T12:06:25;7.75;;;4.63;;
55372;SDS011;41249;47.838;16.490;2023-02-28T12:09:02;6.05;;;3.97;;
55372;SDS011;41249;47.838;16.490;2023-02-28T12:14:05;7.70;;;4.30;;
55372;SDS011;41249;47.838;16.490;2023-02-28T12:16:57;9.52;;;4.90;;
55372;SDS011;41249;47.838;16.490;2023-02-28T12:22:49;5.95;;;4.35;;
55372;SDS011;41249;47.838;16.490;2023-02-28T12:28:38;7.75;;;4.60;;
55372;SDS011;41249;47.838;16.490;2023-02-28T12:31:11;5.43;;;4.10;;
55372;SDS011;41249;47.838;16.490;2023-02-28T12:33:48;7.03;;;4.25;;
55372;SDS011;41249;47.838;16.490;2023-02-28T12:36:19;6.72;;;4.20;;
55372;SDS011;41249;47.838;16.490;2023-02-28T12:38:56;8.88;;;4.65;;
55372;SDS011;41249;47.838;16.490;2023-02-28T12:41:29;5.93;;;3.38;;
55372;SDS011;41249;47.838;16.490;2023-02-28T12:44:06;6.93;;;4.65;;
55372;SDS011;41249;47.838;16.490;2023-02-28T12:46:44;7.30;;;4.03;;
55372;SDS011;41249;47.838;16.490;2023-02-28T12:49:22;6.78;;;4.25;;
55372;SDS011;41249;47.838;16.490;2023-02-28T12:51:56;5.60;;;3.45;;
55372;SDS011;41249;47.838;16.490;2023-02-28T12:59:56;8.13;;;4.35;;
55372;SDS011;41249;47.838;16.490;2023-02-28T13:02:33;8.02;;;4.55;;
55372;SDS011;41249;47.838;16.490;2023-02-28T13:08:04;5.18;;;3.75;;
55372;SDS011;41249;47.838;16.490;2023-02-28T13:10:41;6.70;;;4.20;;
55372;SDS011;41249;47.838;16.490;2023-02-28T13:13:17;8.05;;;4.38;;
55372;SDS011;41249;47.838;16.490;2023-02-28T13:16:00;8.82;;;4.47;;
55372;SDS011;41249;47.838;16.490;2023-02-28T13:18:30;7.63;;;3.80;;
55372;SDS011;41249;47.838;16.490;2023-02-28T13:21:04;6.43;;;4.22;;
55372;SDS011;41249;47.838;16.490;2023-02-28T13:26:01;5.78;;;4.00;;
55372;SDS011;41249;47.838;16.490;2023-02-28T13:29:04;9.75;;;3.85;;
55372;SDS011;41249;47.838;16.490;2023-02-28T13:31:26;7.60;;;4.05;;
55372;SDS011;41249;47.838;16.490;2023-02-28T13:36:25;11.52;;;5.03;;
55372;SDS011;41249;47.838;16.490;2023-02-28T13:38:56;6.03;;;3.85;;
55372;SDS011;41249;47.838;16.490;2023-02-28T13:46:29;5.45;;;3.53;;
55372;SDS011;41249;47.838;16.490;2023-02-28T13:49:18;5.50;;;3.60;;
55372;SDS011;41249;47.838;16.490;2023-02-28T14:03:19;5.10;;;3.42;;
55372;SDS011;41249;47.838;16.490;2023-02-28T14:08:54;6.53;;;3.88;;
55372;SDS011;41249;47.838;16.490;2023-02-28T14:11:26;5.75;;;3.45;;
55372;SDS011;41249;47.838;16.490;2023-02-28T14:13:57;6.15;;;3.72;;
55372;SDS011;41249;47.838;16.490;2023-02-28T14:16:26;5.15;;;3.58;;
55372;SDS011;41249;47.838;16.490;2023-02-28T14:27:24;4.53;;;3.40;;
55372;SDS011;41249;47.838;16.490;2023-02-28T14:38:18;5.78;;;3.90;;
55372;SDS011;41249;47.838;16.490;2023-02-28T14:40:47;8.63;;;3.65;;
55372;SDS011;41249;47.838;16.490;2023-02-28T14:43:24;5.30;;;3.38;;
55372;SDS011;41249;47.838;16.490;2023-02-28T14:45:54;5.20;;;3.33;;
55372;SDS011;41249;47.838;16.490;2023-02-28T14:48:23;5.68;;;4.13;;
55372;SDS011;41249;47.838;16.490;2023-02-28T14:50:58;6.88;;;3.80;;
55372;SDS011;41249;47.838;16.490;2023-02-28T14:53:30;5.53;;;3.70;;
55372;SDS011;41249;47.838;16.490;2023-02-28T14:56:02;7.57;;;4.32;;
55372;SDS011;41249;47.838;16.490;2023-02-28T14:58:30;7.03;;;3.92;;
55372;SDS011;41249;47.838;16.490;2023-02-28T15:01:00;6.43;;;3.10;;
55372;SDS011;41249;47.838;16.490;2023-02-28T15:06:03;6.57;;;4.55;;
55372;SDS011;41249;47.838;16.490;2023-02-28T15:08:32;7.60;;;4.85;;
55372;SDS011;41249;47.838;16.490;2023-02-28T15:11:04;7.22;;;3.80;;
55372;SDS011;41249;47.838;16.490;2023-02-28T15:13:40;6.57;;;4.10;;
55372;SDS011;41249;47.838;16.490;2023-02-28T15:16:17;6.10;;;3.58;;
55372;SDS011;41249;47.838;16.490;2023-02-28T15:18:48;5.05;;;3.40;;
55372;SDS011;41249;47.838;16.490;2023-02-28T15:21:25;5.43;;;3.58;;
55372;SDS011;41249;47.838;16.490;2023-02-28T15:24:10;6.43;;;3.80;;
55372;SDS011;41249;47.838;16.490;2023-02-28T15:26:54;4.97;;;3.70;;
55372;SDS011;41249;47.838;16.490;2023-02-28T15:29:24;6.60;;;3.97;;
55372;SDS011;41249;47.838;16.490;2023-02-28T15:32:03;7.55;;;4.93;;
55372;SDS011;41249;47.838;16.490;2023-02-28T15:34:39;6.65;;;4.72;;
55372;SDS011;41249;47.838;16.490;2023-02-28T15:40:22;5.15;;;3.28;;
55372;SDS011;41249;47.838;16.490;2023-02-28T15:42:58;5.28;;;3.15;;
55372;SDS011;41249;47.838;16.490;2023-02-28T15:45:34;6.20;;;3.45;;
55372;SDS011;41249;47.838;16.490;2023-02-28T15:48:20;4.47;;;3.45;;
55372;SDS011;41249;47.838;16.490;2023-02-28T15:50:54;5.93;;;3.33;;
55372;SDS011;41249;47.838;16.490;2023-02-28T15:53:29;4.93;;;3.85;;
55372;SDS011;41249;47.838;16.490;2023-02-28T15:56:06;7.78;;;3.80;;
55372;SDS011;41249;47.838;16.490;2023-02-28T15:58:47;5.68;;;3.65;;
55372;SDS011;41249;47.838;16.490;2023-02-28T16:03:57;4.85;;;3.50;;
55372;SDS011;41249;47.838;16.490;2023-02-28T16:08:53;6.47;;;4.10;;
55372;SDS011;41249;47.838;16.490;2023-02-28T16:11:20;7.70;;;4.60;;
55372;SDS011;41249;47.838;16.490;2023-02-28T16:13:48;8.15;;;5.22;;
55372;SDS011;41249;47.838;16.490;2023-02-28T16:16:17;6.65;;;4.55;;
55372;SDS011;41249;47.838;16.490;2023-02-28T16:18:45;6.28;;;4.28;;
55372;SDS011;41249;47.838;16.490;2023-02-28T16:21:12;6.60;;;4.82;;
55372;SDS011;41249;47.838;16.490;2023-02-28T16:23:38;8.68;;;5.40;;
55372;SDS011;41249;47.838;16.490;2023-02-28T16:26:05;6.60;;;5.13;;
55372;SDS011;41249;47.838;16.490;2023-02-28T16:28:35;9.13;;;5.95;;
55372;SDS011;41249;47.838;16.490;2023-02-28T16:31:05;11.20;;;6.40;;
55372;SDS011;41249;47.838;16.490;2023-02-28T16:33:33;9.48;;;6.15;;
55372;SDS011;41249;47.838;16.490;2023-02-28T16:36:00;8.15;;;5.93;;
55372;SDS011;41249;47.838;16.490;2023-02-28T16:38:27;8.20;;;5.30;;
55372;SDS011;41249;47.838;16.490;2023-02-28T16:40:55;11.68;;;6.20;;
55372;SDS011;41249;47.838;16.490;2023-02-28T16:43:24;9.98;;;5.43;;
55372;SDS011;41249;47.838;16.490;2023-02-28T16:45:55;15.35;;;9.43;;
55372;SDS011;41249;47.838;16.490;2023-02-28T16:48:26;16.77;;;6.15;;
55372;SDS011;41249;47.838;16.490;2023-02-28T16:50:53;11.73;;;6.15;;
55372;SDS011;41249;47.838;16.490;2023-02-28T16:53:19;10.57;;;7.28;;
55372;SDS011;41249;47.838;16.490;2023-02-28T16:55:47;9.98;;;6.85;;
55372;SDS011;41249;47.838;16.490;2023-02-28T16:58:14;11.27;;;7.65;;
55372;SDS011;41249;47.838;16.490;2023-02-28T17:00:42;12.73;;;8.43;;
55372;SDS011;41249;47.838;16.490;2023-02-28T17:03:22;12.65;;;8.02;;
55372;SDS011;41249;47.838;16.490;2023-02-28T17:05:58;12.82;;;8.52;;
55372;SDS011;41249;47.838;16.490;2023-02-28T17:08:25;11.25;;;8.77;;
55372;SDS011;41249;47.838;16.490;2023-02-28T17:10:55;10.85;;;7.93;;